createdAt,value
2019-03-03T00:00:24.141Z,66.00
2019-03-03T00:02:52.405Z,66.60
2019-03-03T00:05:22.308Z,66.80
2019-03-03T00:07:50.606Z,66.80
2019-03-03T00:10:18.867Z,68.90
2019-03-03T00:12:50.977Z,68.40
2019-03-03T00:15:19.292Z,67.80
2019-03-03T00:17:47.540Z,68.00
2019-03-03T00:20:22.339Z,70.00
2019-03-03T00:22:52.707Z,69.80
2019-03-03T00:25:21.123Z,69.50
2019-03-03T00:27:49.389Z,69.40
2019-03-03T00:30:18.810Z,69.70
2019-03-03T00:32:47.067Z,69.70
2019-03-03T00:35:15.345Z,69.60
2019-03-03T00:37:45.363Z,69.50
2019-03-03T00:40:31.719Z,69.80
2019-03-03T00:43:04.945Z,69.90
2019-03-03T00:45:34.844Z,70.60
2019-03-03T00:48:18.692Z,72.00
2019-03-03T00:50:54.445Z,72.30
2019-03-03T00:53:24.352Z,71.40
2019-03-03T00:55:54.261Z,71.70
2019-03-03T00:58:26.915Z,71.20
2019-03-03T01:01:05.829Z,71.70
2019-03-03T01:03:35.784Z,71.60
2019-03-03T01:06:10.260Z,71.70
2019-03-03T01:08:55.275Z,71.50
2019-03-03T01:11:37.155Z,70.90
2019-03-03T01:14:09.880Z,71.40
2019-03-03T01:16:39.807Z,71.00
2019-03-03T01:19:18.815Z,71.20
2019-03-03T01:22:00.688Z,71.00
2019-03-03T01:24:46.758Z,69.70
2019-03-03T01:27:18.323Z,70.50
2019-03-03T01:29:46.598Z,70.50
2019-03-03T01:32:14.872Z,70.00
2019-03-03T01:34:43.220Z,69.30
2019-03-03T01:37:11.480Z,69.30
2019-03-03T01:39:39.739Z,68.70
2019-03-03T01:42:08.008Z,69.00
2019-03-03T01:44:36.275Z,70.30
2019-03-03T01:47:04.528Z,70.10
2019-03-03T01:49:32.826Z,69.80
2019-03-03T01:52:01.152Z,69.50
2019-03-03T01:54:29.424Z,68.70
2019-03-03T01:56:57.720Z,68.20
2019-03-03T01:59:26.045Z,68.10
2019-03-03T02:01:54.303Z,68.00
2019-03-03T02:04:23.730Z,68.30
2019-03-03T02:06:52.107Z,68.10
2019-03-03T02:09:20.352Z,68.30
2019-03-03T02:11:48.645Z,68.00
2019-03-03T02:14:16.907Z,67.80
2019-03-03T02:16:45.176Z,68.10
2019-03-03T02:19:13.816Z,68.10
2019-03-03T02:21:42.085Z,68.00
2019-03-03T02:24:10.339Z,67.90
2019-03-03T02:26:38.624Z,67.80
2019-03-03T02:29:07.051Z,68.30
2019-03-03T02:31:35.310Z,68.50
2019-03-03T02:34:04.947Z,68.10
2019-03-03T02:36:33.253Z,67.70
2019-03-03T02:39:01.510Z,68.00
2019-03-03T02:41:29.800Z,68.20
2019-03-03T02:44:02.144Z,68.90
2019-03-03T02:46:30.478Z,68.90
2019-03-03T02:48:58.770Z,68.90
2019-03-03T02:51:27.032Z,68.90
2019-03-03T02:53:55.362Z,69.30
2019-03-03T02:56:23.708Z,69.10
2019-03-03T02:58:51.966Z,68.90
2019-03-03T03:01:23.716Z,68.90
2019-03-03T03:03:53.554Z,69.40
2019-03-03T03:06:23.531Z,69.00
2019-03-03T03:09:08.410Z,69.30
2019-03-03T03:11:54.838Z,69.00
2019-03-03T03:14:24.848Z,69.00
2019-03-03T03:16:57.391Z,69.10
2019-03-03T03:19:35.446Z,69.10
2019-03-03T03:22:11.294Z,68.90
2019-03-03T03:24:44.505Z,69.00
2019-03-03T03:27:26.509Z,69.40
2019-03-03T03:30:05.033Z,69.10
2019-03-03T03:32:49.951Z,69.50
2019-03-03T03:35:26.085Z,69.00
2019-03-03T03:38:00.340Z,69.70
2019-03-03T03:40:45.083Z,69.80
2019-03-03T03:43:17.551Z,69.80
2019-03-03T03:46:04.096Z,70.10
2019-03-03T03:48:40.091Z,70.10
2019-03-03T03:51:15.708Z,69.00
2019-03-03T03:53:48.123Z,69.50
2019-03-03T03:56:23.124Z,69.80
2019-03-03T03:58:58.732Z,69.90
2019-03-03T04:01:36.111Z,70.00
2019-03-03T04:04:14.896Z,70.10
2019-03-03T04:07:03.741Z,70.00
2019-03-03T04:09:39.468Z,69.50
2019-03-03T04:12:15.345Z,70.00
2019-03-03T04:14:57.267Z,69.40
2019-03-03T04:17:41.986Z,69.50
2019-03-03T04:20:30.413Z,69.50
2019-03-03T04:23:09.161Z,69.40
2019-03-03T04:25:56.974Z,69.30
2019-03-03T04:28:47.720Z,69.30
2019-03-03T04:31:33.776Z,69.30
2019-03-03T04:34:23.186Z,69.50
2019-03-03T04:37:06.532Z,69.80
2019-03-03T04:39:36.448Z,69.60
2019-03-03T04:42:18.347Z,69.50
2019-03-03T04:44:50.994Z,69.20
2019-03-03T04:47:29.715Z,69.50
2019-03-03T04:50:04.012Z,69.60
2019-03-03T04:52:33.985Z,69.30
2019-03-03T04:55:23.673Z,69.40
2019-03-03T04:57:59.767Z,70.00
2019-03-03T05:00:46.123Z,69.70
2019-03-03T05:03:16.050Z,69.80
2019-03-03T05:05:46.660Z,70.10
2019-03-03T05:08:22.334Z,70.00
2019-03-03T05:10:52.252Z,70.10
2019-03-03T05:13:24.767Z,70.00
2019-03-03T05:15:58.368Z,69.80
2019-03-03T05:18:33.771Z,69.90
2019-03-03T05:21:02.053Z,69.90
2019-03-03T05:23:30.311Z,69.80
2019-03-03T05:26:00.711Z,69.30
2019-03-03T05:28:28.581Z,69.60
2019-03-03T05:30:56.827Z,69.40
2019-03-03T05:33:26.725Z,68.60
2019-03-03T05:35:55.062Z,68.60
2019-03-03T05:38:23.327Z,68.90
2019-03-03T05:40:51.597Z,68.50
2019-03-03T05:43:19.877Z,68.40
2019-03-03T05:45:48.133Z,68.00
2019-03-03T05:48:16.396Z,67.60
2019-03-03T05:50:44.671Z,67.30
2019-03-03T05:53:13.626Z,67.40
2019-03-03T05:55:41.879Z,68.00
2019-03-03T05:58:10.155Z,68.40
2019-03-03T06:00:38.782Z,68.30
2019-03-03T06:03:07.053Z,68.40
2019-03-03T06:05:35.329Z,68.60
2019-03-03T06:08:03.581Z,68.50
2019-03-03T06:10:31.828Z,68.80
2019-03-03T06:13:00.128Z,69.10
2019-03-03T06:15:28.383Z,69.30
2019-03-03T06:18:04.250Z,69.50
2019-03-03T06:20:32.684Z,69.40
2019-03-03T06:23:00.940Z,69.40
2019-03-03T06:25:35.165Z,69.00
2019-03-03T06:28:07.915Z,69.20
2019-03-03T06:30:36.174Z,69.50
2019-03-03T06:33:04.506Z,69.30
2019-03-03T06:35:32.784Z,69.50
2019-03-03T06:38:01.074Z,69.60
2019-03-03T06:40:29.400Z,69.70
2019-03-03T06:42:57.696Z,69.60
2019-03-03T06:45:25.956Z,69.60
2019-03-03T06:48:01.774Z,69.60
2019-03-03T06:50:30.055Z,69.60
2019-03-03T06:52:58.334Z,69.50
2019-03-03T06:55:26.663Z,69.40
2019-03-03T06:57:54.937Z,70.00
2019-03-03T07:00:23.228Z,69.00
2019-03-03T07:02:51.553Z,68.90
2019-03-03T07:05:19.812Z,68.70
2019-03-03T07:07:48.072Z,68.50
2019-03-03T07:10:16.338Z,68.20
2019-03-03T07:12:44.683Z,67.60
2019-03-03T07:15:16.875Z,66.80
2019-03-03T07:17:45.179Z,65.60
2019-03-03T07:20:13.724Z,65.90
2019-03-03T07:22:45.309Z,65.50
2019-03-03T07:25:14.238Z,65.20
2019-03-03T07:27:42.504Z,64.50
2019-03-03T07:30:14.019Z,64.50
2019-03-03T07:33:00.126Z,63.20
2019-03-03T07:35:28.379Z,63.10
2019-03-03T07:38:01.297Z,62.50
2019-03-03T07:40:31.156Z,61.80
2019-03-03T07:43:05.111Z,61.40
2019-03-03T07:45:37.445Z,60.70
2019-03-03T07:48:05.716Z,60.40
2019-03-03T07:50:33.967Z,60.10
2019-03-03T07:53:04.934Z,59.70
2019-03-03T07:55:33.204Z,59.30
2019-03-03T07:58:01.471Z,59.20
2019-03-03T08:00:29.742Z,58.30
2019-03-03T08:03:02.456Z,58.60
2019-03-03T08:05:30.716Z,58.40
2019-03-03T08:07:59.044Z,57.70
2019-03-03T08:10:27.333Z,57.60
2019-03-03T08:12:55.592Z,57.40
2019-03-03T08:15:23.884Z,58.10
2019-03-03T08:17:52.135Z,57.20
2019-03-03T08:20:20.398Z,57.40
2019-03-03T08:22:48.663Z,57.40
2019-03-03T08:25:16.920Z,58.00
2019-03-03T08:27:48.063Z,59.60
2019-03-03T08:30:17.379Z,55.10
2019-03-03T08:32:47.277Z,55.30
2019-03-03T08:35:20.711Z,54.80
2019-03-03T08:37:49.010Z,57.70
2019-03-03T08:40:17.279Z,53.90
2019-03-03T08:42:47.197Z,54.30
2019-03-03T08:45:17.125Z,53.80
2019-03-03T08:47:56.253Z,52.30
2019-03-03T08:50:32.107Z,53.70
2019-03-03T08:53:17.381Z,54.70
2019-03-03T08:55:47.371Z,53.00
2019-03-03T08:58:18.004Z,53.70
2019-03-03T09:00:47.903Z,56.20
2019-03-03T09:03:17.834Z,54.70
2019-03-03T09:06:03.524Z,53.40
2019-03-03T09:08:42.145Z,52.50
2019-03-03T09:11:19.836Z,52.70
2019-03-03T09:13:52.310Z,51.50
2019-03-03T09:16:24.332Z,52.90
2019-03-03T09:19:07.343Z,53.30
2019-03-03T09:21:43.197Z,53.50
2019-03-03T09:24:15.640Z,53.20
2019-03-03T09:27:00.009Z,54.40
2019-03-03T09:29:48.269Z,52.00
2019-03-03T09:32:21.139Z,51.80
2019-03-03T09:35:00.448Z,51.90
2019-03-03T09:37:45.445Z,54.00
2019-03-03T09:40:15.379Z,51.10
2019-03-03T09:42:51.153Z,52.40
2019-03-03T09:45:21.104Z,53.10
2019-03-03T09:47:51.033Z,50.90
2019-03-03T09:50:23.504Z,48.70
2019-03-03T09:52:52.738Z,50.30
2019-03-03T09:55:42.832Z,49.60
2019-03-03T09:58:18.494Z,49.50
2019-03-03T10:01:06.376Z,51.30
2019-03-03T10:03:36.363Z,47.00
2019-03-03T10:06:22.433Z,47.50
2019-03-03T10:09:08.409Z,48.70
2019-03-03T10:11:49.120Z,48.50
2019-03-03T10:14:23.356Z,48.70
2019-03-03T10:16:59.669Z,48.10
2019-03-03T10:19:51.645Z,47.10
2019-03-03T10:22:34.307Z,46.40
2019-03-03T10:25:10.070Z,45.90
2019-03-03T10:27:57.898Z,43.30
2019-03-03T10:30:49.104Z,36.10
2019-03-03T10:33:30.704Z,32.40
2019-03-03T10:36:03.065Z,30.30
2019-03-03T10:38:44.114Z,29.60
2019-03-03T10:41:20.095Z,30.50
2019-03-03T10:43:55.729Z,29.90
2019-03-03T10:46:25.659Z,28.50
2019-03-03T10:49:01.462Z,27.80
2019-03-03T10:51:37.573Z,27.80
2019-03-03T10:54:07.479Z,27.50
2019-03-03T10:56:46.459Z,27.30
2019-03-03T10:59:31.495Z,27.00
2019-03-03T11:02:18.497Z,27.10
2019-03-03T11:05:00.097Z,27.60
2019-03-03T11:07:31.700Z,28.00
2019-03-03T11:10:17.784Z,28.50
2019-03-03T11:12:48.147Z,28.80
2019-03-03T11:15:35.896Z,28.40
2019-03-03T11:18:05.947Z,28.20
2019-03-03T11:20:35.877Z,28.40
2019-03-03T11:23:15.650Z,28.80
2019-03-03T11:25:48.307Z,28.10
2019-03-03T11:28:23.748Z,27.60
2019-03-03T11:30:52.700Z,28.30
2019-03-03T11:33:27.438Z,28.70
2019-03-03T11:35:59.783Z,29.60
2019-03-03T11:38:31.845Z,31.60
2019-03-03T11:41:04.692Z,33.30
2019-03-03T11:43:52.593Z,34.70
2019-03-03T11:46:27.388Z,36.00
2019-03-03T11:48:59.917Z,37.80
2019-03-03T11:51:35.735Z,35.60
2019-03-03T11:54:13.784Z,34.90
2019-03-03T11:56:43.766Z,34.10
2019-03-03T11:59:13.743Z,34.60
2019-03-03T12:02:00.367Z,36.00
2019-03-03T12:04:48.397Z,36.10
2019-03-03T12:07:18.457Z,36.00
2019-03-03T12:09:48.369Z,35.80
2019-03-03T12:12:24.396Z,34.80
2019-03-03T12:15:09.090Z,34.60
2019-03-03T12:17:49.771Z,34.90
2019-03-03T12:20:31.868Z,33.60
2019-03-03T12:23:01.789Z,32.40
2019-03-03T12:25:31.708Z,31.20
2019-03-03T12:28:06.859Z,30.50
2019-03-03T12:30:41.708Z,31.00
2019-03-03T12:33:11.612Z,31.30
2019-03-03T12:35:47.676Z,32.70
2019-03-03T12:38:23.302Z,32.60
2019-03-03T12:41:11.093Z,33.80
2019-03-03T12:43:49.928Z,35.50
2019-03-03T12:46:19.935Z,36.00
2019-03-03T12:48:52.730Z,37.20
2019-03-03T12:51:43.838Z,37.50
2019-03-03T12:54:13.742Z,35.30
2019-03-03T12:56:58.673Z,34.70
2019-03-03T12:59:40.659Z,32.70
2019-03-03T13:02:19.664Z,31.50
2019-03-03T13:05:00.120Z,30.30
2019-03-03T13:07:38.792Z,30.40
2019-03-03T13:10:19.328Z,30.60
2019-03-03T13:13:06.623Z,32.80
2019-03-03T13:15:42.259Z,34.90
2019-03-03T13:18:12.207Z,34.70
2019-03-03T13:20:44.784Z,34.60
2019-03-03T13:23:15.718Z,34.40
2019-03-03T13:25:54.524Z,34.70
2019-03-03T13:28:24.447Z,34.60
2019-03-03T13:31:09.693Z,35.00
2019-03-03T13:33:42.467Z,35.50
2019-03-03T13:36:18.055Z,35.70
2019-03-03T13:38:50.879Z,35.20
2019-03-03T13:41:20.795Z,35.20
2019-03-03T13:43:50.741Z,34.40
2019-03-03T13:46:22.271Z,33.70
2019-03-03T13:48:52.267Z,33.30
2019-03-03T13:51:20.551Z,33.40
2019-03-03T13:53:48.801Z,34.10
2019-03-03T13:56:17.077Z,34.90
2019-03-03T13:58:45.449Z,32.50
2019-03-03T14:01:13.709Z,32.20
2019-03-03T14:03:42.078Z,30.80
2019-03-03T14:06:10.379Z,32.50
2019-03-03T14:08:38.643Z,32.50
2019-03-03T14:11:06.921Z,32.70
2019-03-03T14:13:35.272Z,33.50
2019-03-03T14:16:03.544Z,33.50
2019-03-03T14:18:31.804Z,33.70
2019-03-03T14:21:00.087Z,34.30
2019-03-03T14:23:30.113Z,35.60
2019-03-03T14:26:02.869Z,35.10
2019-03-03T14:28:31.149Z,36.20
2019-03-03T14:30:59.487Z,35.90
2019-03-03T14:33:27.758Z,35.50
2019-03-03T14:35:56.051Z,36.00
2019-03-03T14:38:24.314Z,36.00
2019-03-03T14:40:54.294Z,35.40
2019-03-03T14:43:22.648Z,35.40
2019-03-03T14:45:50.904Z,35.80
2019-03-03T14:48:19.174Z,36.40
2019-03-03T14:50:49.068Z,36.60
2019-03-03T14:53:17.335Z,36.80
2019-03-03T14:55:51.714Z,36.90
2019-03-03T14:58:24.268Z,37.00
2019-03-03T15:00:52.540Z,37.00
2019-03-03T15:03:20.800Z,37.40
2019-03-03T15:05:49.079Z,37.00
2019-03-03T15:08:17.342Z,37.20
2019-03-03T15:10:47.304Z,37.40
2019-03-03T15:13:17.264Z,37.20
2019-03-03T15:15:45.537Z,37.00
2019-03-03T15:18:13.802Z,36.80
2019-03-03T15:20:42.131Z,37.20
2019-03-03T15:23:10.388Z,36.80
2019-03-03T15:25:40.291Z,37.40
2019-03-03T15:28:08.581Z,37.70
2019-03-03T15:30:36.876Z,37.90
2019-03-03T15:33:05.467Z,37.50
2019-03-03T15:35:33.758Z,37.40
2019-03-03T15:38:06.539Z,37.30
2019-03-03T15:40:34.818Z,36.90
2019-03-03T15:43:03.099Z,37.00
2019-03-03T15:45:31.588Z,37.10
2019-03-03T15:47:59.886Z,36.90
2019-03-03T15:50:28.183Z,36.70
2019-03-03T15:52:58.082Z,36.60
2019-03-03T15:55:27.902Z,37.10
2019-03-03T15:57:56.653Z,36.50
2019-03-03T16:00:30.820Z,36.90
2019-03-03T16:02:59.092Z,36.60
2019-03-03T16:05:27.364Z,36.80
2019-03-03T16:07:55.672Z,36.90
2019-03-03T16:10:27.236Z,37.00
2019-03-03T16:12:55.567Z,37.20
2019-03-03T16:15:23.897Z,37.90
2019-03-03T16:17:52.235Z,38.00
2019-03-03T16:20:23.769Z,37.90
2019-03-03T16:22:52.044Z,38.30
2019-03-03T16:25:22.810Z,38.20
2019-03-03T16:27:51.091Z,37.90
2019-03-03T16:30:24.275Z,37.80
2019-03-03T16:32:52.547Z,37.90
2019-03-03T16:35:20.835Z,38.30
2019-03-03T16:37:49.102Z,38.10
2019-03-03T16:40:20.168Z,38.30
2019-03-03T16:42:54.609Z,38.60
2019-03-03T16:45:18.560Z,38.80
2019-03-03T16:47:46.831Z,39.60
2019-03-03T16:50:19.688Z,39.30
2019-03-03T16:52:48.391Z,39.60
2019-03-03T16:55:19.916Z,39.60
2019-03-03T16:57:50.894Z,39.70
2019-03-03T17:00:21.520Z,39.60
2019-03-03T17:02:49.863Z,39.80
2019-03-03T17:05:20.180Z,40.00
2019-03-03T17:07:48.439Z,40.10
2019-03-03T17:10:16.779Z,40.20
2019-03-03T17:12:47.231Z,40.40
2019-03-03T17:15:22.968Z,40.30
2019-03-03T17:17:51.254Z,40.70
2019-03-03T17:20:19.512Z,40.80
2019-03-03T17:22:47.790Z,41.10
2019-03-03T17:25:26.488Z,41.10
2019-03-03T17:27:54.775Z,41.40
2019-03-03T17:30:25.285Z,41.20
2019-03-03T17:32:55.313Z,41.20
2019-03-03T17:35:23.678Z,41.70
2019-03-03T17:37:53.642Z,41.70
2019-03-03T17:40:27.121Z,41.80
2019-03-03T17:42:55.389Z,41.80
2019-03-03T17:45:24.203Z,41.80
2019-03-03T17:47:52.498Z,41.60
2019-03-03T17:50:26.991Z,41.60
2019-03-03T17:52:55.365Z,41.70
2019-03-03T17:55:23.623Z,42.20
2019-03-03T17:57:53.459Z,42.00
2019-03-03T18:00:26.996Z,41.70
2019-03-03T18:02:55.280Z,41.90
2019-03-03T18:05:23.604Z,42.40
2019-03-03T18:07:51.920Z,42.40
2019-03-03T18:10:20.272Z,42.70
2019-03-03T18:12:52.818Z,42.90
2019-03-03T18:15:20.413Z,43.10
2019-03-03T18:17:50.386Z,42.70
2019-03-03T18:20:20.472Z,43.20
2019-03-03T18:22:49.039Z,43.10
2019-03-03T18:25:18.333Z,42.90
2019-03-03T18:27:46.888Z,43.10
2019-03-03T18:30:17.327Z,43.20
2019-03-03T18:32:45.616Z,43.10
2019-03-03T18:35:14.027Z,43.30
2019-03-03T18:37:45.086Z,43.50
2019-03-03T18:40:18.751Z,43.50
2019-03-03T18:42:49.214Z,43.40
2019-03-03T18:45:22.271Z,43.40
2019-03-03T18:47:50.658Z,43.40
2019-03-03T18:50:22.462Z,43.10
2019-03-03T18:52:50.790Z,43.00
2019-03-03T18:55:21.231Z,42.70
2019-03-03T18:57:51.747Z,42.50
2019-03-03T19:00:28.347Z,42.60
2019-03-03T19:02:58.254Z,42.70
2019-03-03T19:05:26.637Z,43.20
2019-03-03T19:07:59.339Z,43.60
2019-03-03T19:10:36.215Z,43.40
2019-03-03T19:13:04.552Z,43.20
2019-03-03T19:15:33.446Z,43.40
2019-03-03T19:18:01.924Z,43.30
2019-03-03T19:20:32.877Z,43.20
2019-03-03T19:23:01.134Z,43.00
2019-03-03T19:25:35.330Z,43.30
2019-03-03T19:28:03.599Z,43.20
2019-03-03T19:30:31.895Z,43.80
2019-03-03T19:33:21.341Z,43.30
2019-03-03T19:35:50.984Z,43.30
2019-03-03T19:38:19.277Z,43.70
2019-03-03T19:40:47.570Z,44.20
2019-03-03T19:43:15.868Z,44.00
2019-03-03T19:45:47.096Z,43.80
2019-03-03T19:48:15.745Z,44.40
2019-03-03T19:50:44.020Z,44.30
2019-03-03T19:53:12.291Z,43.50
2019-03-03T19:55:42.729Z,44.00
2019-03-03T19:58:17.301Z,44.20
2019-03-03T20:00:48.273Z,44.10
2019-03-03T20:03:16.636Z,44.30
2019-03-03T20:05:44.974Z,44.30
2019-03-03T20:08:13.335Z,44.60
2019-03-03T20:10:46.116Z,44.60
2019-03-03T20:13:15.880Z,45.20
2019-03-03T20:15:44.462Z,45.50
2019-03-03T20:18:12.746Z,45.10
2019-03-03T20:20:41.008Z,45.10
2019-03-03T20:23:09.296Z,45.50
2019-03-03T20:25:37.564Z,45.50
2019-03-03T20:28:05.830Z,45.60
2019-03-03T20:30:34.147Z,45.80
2019-03-03T20:33:02.484Z,45.90
2019-03-03T20:35:30.939Z,46.00
2019-03-03T20:37:59.291Z,46.20
2019-03-03T20:40:28.201Z,45.90
2019-03-03T20:42:56.620Z,46.00
2019-03-03T20:45:33.152Z,46.00
2019-03-03T20:48:03.043Z,46.00
2019-03-03T20:50:31.336Z,46.10
2019-03-03T20:52:59.640Z,46.20
2019-03-03T20:55:32.207Z,46.20
2019-03-03T20:57:59.790Z,46.20
2019-03-03T21:00:31.803Z,46.20
2019-03-03T21:03:02.411Z,46.20
2019-03-03T21:05:30.692Z,46.00
2019-03-03T21:08:00.695Z,45.70
2019-03-03T21:10:33.284Z,45.60
2019-03-03T21:13:02.441Z,45.50
2019-03-03T21:15:30.744Z,45.50
2019-03-03T21:18:03.261Z,45.50
2019-03-03T21:20:30.837Z,45.80
2019-03-03T21:22:59.108Z,46.10
2019-03-03T21:25:31.075Z,45.80
2019-03-03T21:27:59.346Z,46.10
2019-03-03T21:30:27.895Z,45.90
2019-03-03T21:32:56.266Z,46.10
2019-03-03T21:35:24.622Z,45.90
2019-03-03T21:37:52.892Z,45.90
2019-03-03T21:40:22.792Z,46.00
2019-03-03T21:42:51.069Z,45.80
2019-03-03T21:45:23.736Z,45.60
2019-03-03T21:47:52.207Z,45.60
2019-03-03T21:50:22.391Z,45.70
2019-03-03T21:52:50.694Z,45.80
2019-03-03T21:55:19.031Z,46.00
2019-03-03T21:57:47.297Z,46.10
2019-03-03T22:00:33.449Z,46.40
2019-03-03T22:03:01.771Z,46.60
2019-03-03T22:05:33.230Z,46.80
2019-03-03T22:08:03.207Z,47.10
2019-03-03T22:10:39.441Z,47.40
2019-03-03T22:13:09.779Z,47.60
2019-03-03T22:15:38.035Z,47.70
2019-03-03T22:18:06.391Z,47.80
2019-03-03T22:20:34.668Z,47.90
2019-03-03T22:23:05.725Z,48.00
2019-03-03T22:25:35.702Z,48.20
2019-03-03T22:28:03.987Z,48.20
2019-03-03T22:30:32.251Z,48.20
2019-03-03T22:33:00.516Z,48.20
2019-03-03T22:35:28.792Z,48.40
2019-03-03T22:37:57.073Z,48.40
2019-03-03T22:40:25.403Z,48.50
2019-03-03T22:42:53.799Z,48.60
2019-03-03T22:45:22.439Z,48.60
2019-03-03T22:47:50.691Z,48.80
2019-03-03T22:50:20.201Z,48.80
2019-03-03T22:52:48.466Z,49.00
2019-03-03T22:55:18.276Z,48.90
2019-03-03T22:57:46.546Z,48.90
2019-03-03T23:00:48.180Z,48.90
2019-03-03T23:03:19.784Z,48.90
2019-03-03T23:06:08.991Z,49.00
2019-03-03T23:08:46.282Z,49.00
2019-03-03T23:11:20.723Z,49.00
2019-03-03T23:13:52.284Z,49.00
2019-03-03T23:16:32.731Z,48.80
2019-03-03T23:19:09.809Z,48.80
2019-03-03T23:21:47.279Z,48.70
2019-03-03T23:24:27.841Z,48.80
2019-03-03T23:26:56.099Z,48.60
2019-03-03T23:29:24.365Z,48.70
2019-03-03T23:31:52.625Z,48.80
2019-03-03T23:34:20.892Z,48.70
2019-03-03T23:36:49.164Z,48.50
2019-03-03T23:39:19.084Z,48.70
2019-03-03T23:41:47.358Z,48.50
2019-03-03T23:44:15.687Z,48.50
2019-03-03T23:46:43.963Z,48.30
2019-03-03T23:49:12.241Z,48.00
2019-03-03T23:51:42.099Z,47.70
2019-03-03T23:54:11.985Z,47.70
2019-03-03T23:56:40.245Z,47.70
2019-03-03T23:59:08.510Z,47.50
